<?xml version="1.0" encoding="UTF-8"?>
<gpx version="1.0" creator="GPSBabel - https://www.gpsbabel.org" xmlns="http://www.topografix.com/GPX/1/0">
  <time>2021-03-27T02:11:17.401Z</time>
  <bounds minlat="31.883585530" minlon="-109.178022960" maxlat="31.891579590" maxlon="-109.167772780"/>
  <trk>
    <name>Cave Creek Nature Trail Walk.PatJayNancy.2021-03-21</name>
    <trkseg>
      <trkpt lat="31.883802710" lon="-109.178022960">
        <ele>1524.600</ele>
        <time>2021-03-21T22:45:50Z</time>
        <name>WPT</name>
      </trkpt>
      <trkpt lat="31.883771950" lon="-109.177998480">
        <ele>1526.300</ele>
        <time>2021-03-21T22:46:08Z</time>
        <name>WPT.1</name>
      </trkpt>
      <trkpt lat="31.883734940" lon="-109.177998200">
        <ele>1525.500</ele>
        <time>2021-03-21T22:46:14Z</time>
        <name>WPT.2</name>
      </trkpt>
      <trkpt lat="31.883711660" lon="-109.177964640">
        <ele>1528.300</ele>
        <time>2021-03-21T22:47:43Z</time>
        <name>WPT.3</name>
      </trkpt>
      <trkpt lat="31.883677680" lon="-109.177929980">
        <ele>1529.300</ele>
        <time>2021-03-21T22:47:47Z</time>
        <name>WPT.4</name>
      </trkpt>
      <trkpt lat="31.883666090" lon="-109.177883670">
        <ele>1529.900</ele>
        <time>2021-03-21T22:47:53Z</time>
        <name>WPT.5</name>
      </trkpt>
      <trkpt lat="31.883665410" lon="-109.177836710">
        <ele>1528.300</ele>
        <time>2021-03-21T22:47:58Z</time>
        <name>WPT.6</name>
      </trkpt>
      <trkpt lat="31.883656840" lon="-109.177793230">
        <ele>1525.800</ele>
        <time>2021-03-21T22:48:04Z</time>
        <name>WPT.7</name>
      </trkpt>
      <trkpt lat="31.883643970" lon="-109.177748300">
        <ele>1526.900</ele>
        <time>2021-03-21T22:48:10Z</time>
        <name>WPT.8</name>
      </trkpt>
      <trkpt lat="31.883641670" lon="-109.177704390">
        <ele>1527.100</ele>
        <time>2021-03-21T22:48:15Z</time>
        <name>WPT.9</name>
      </trkpt>
      <trkpt lat="31.883644330" lon="-109.177654990">
        <ele>1527.900</ele>
        <time>2021-03-21T22:48:20Z</time>
        <name>WPT.10</name>
      </trkpt>
      <trkpt lat="31.883646270" lon="-109.177601860">
        <ele>1525.000</ele>
        <time>2021-03-21T22:48:26Z</time>
        <name>WPT.11</name>
      </trkpt>
      <trkpt lat="31.883650600" lon="-109.177556020">
        <ele>1523.300</ele>
        <time>2021-03-21T22:48:30Z</time>
        <name>WPT.12</name>
      </trkpt>
      <trkpt lat="31.883639010" lon="-109.177507030">
        <ele>1522.400</ele>
        <time>2021-03-21T22:48:35Z</time>
        <name>WPT.13</name>
      </trkpt>
      <trkpt lat="31.883638300" lon="-109.177461490">
        <ele>1522.300</ele>
        <time>2021-03-21T22:48:40Z</time>
        <name>WPT.14</name>
      </trkpt>
      <trkpt lat="31.883637390" lon="-109.177414080">
        <ele>1522.000</ele>
        <time>2021-03-21T22:48:45Z</time>
        <name>WPT.15</name>
      </trkpt>
      <trkpt lat="31.883636990" lon="-109.177365220">
        <ele>1521.400</ele>
        <time>2021-03-21T22:48:50Z</time>
        <name>WPT.16</name>
      </trkpt>
      <trkpt lat="31.883637200" lon="-109.177322940">
        <ele>1520.500</ele>
        <time>2021-03-21T22:48:54Z</time>
        <name>WPT.17</name>
      </trkpt>
      <trkpt lat="31.883634160" lon="-109.177274410">
        <ele>1521.900</ele>
        <time>2021-03-21T22:48:59Z</time>
        <name>WPT.18</name>
      </trkpt>
      <trkpt lat="31.883637240" lon="-109.177228400">
        <ele>1524.100</ele>
        <time>2021-03-21T22:49:03Z</time>
        <name>WPT.19</name>
      </trkpt>
      <trkpt lat="31.883629320" lon="-109.177177120">
        <ele>1524.200</ele>
        <time>2021-03-21T22:49:08Z</time>
        <name>WPT.20</name>
      </trkpt>
      <trkpt lat="31.883631480" lon="-109.177126390">
        <ele>1523.700</ele>
        <time>2021-03-21T22:49:13Z</time>
        <name>WPT.21</name>
      </trkpt>
      <trkpt lat="31.883622460" lon="-109.177076440">
        <ele>1521.900</ele>
        <time>2021-03-21T22:49:18Z</time>
        <name>WPT.22</name>
      </trkpt>
      <trkpt lat="31.883616010" lon="-109.177034120">
        <ele>1522.000</ele>
        <time>2021-03-21T22:49:22Z</time>
        <name>WPT.23</name>
      </trkpt>
      <trkpt lat="31.883618170" lon="-109.176991860">
        <ele>1521.800</ele>
        <time>2021-03-21T22:49:30Z</time>
        <name>WPT.24</name>
      </trkpt>
      <trkpt lat="31.883613000" lon="-109.176943450">
        <ele>1522.600</ele>
        <time>2021-03-21T22:49:40Z</time>
        <name>WPT.25</name>
      </trkpt>
      <trkpt lat="31.883605890" lon="-109.176894120">
        <ele>1521.700</ele>
        <time>2021-03-21T22:49:45Z</time>
        <name>WPT.26</name>
      </trkpt>
      <trkpt lat="31.883602240" lon="-109.176848070">
        <ele>1519.800</ele>
        <time>2021-03-21T22:49:49Z</time>
        <name>WPT.27</name>
      </trkpt>
      <trkpt lat="31.883594420" lon="-109.176804490">
        <ele>1518.400</ele>
        <time>2021-03-21T22:49:54Z</time>
        <name>WPT.28</name>
      </trkpt>
      <trkpt lat="31.883588540" lon="-109.176761870">
        <ele>1519.300</ele>
        <time>2021-03-21T22:49:58Z</time>
        <name>WPT.29</name>
      </trkpt>
      <trkpt lat="31.883585530" lon="-109.176717600">
        <ele>1520.300</ele>
        <time>2021-03-21T22:50:03Z</time>
        <name>WPT.30</name>
      </trkpt>
      <trkpt lat="31.883596730" lon="-109.176670820">
        <ele>1521.000</ele>
        <time>2021-03-21T22:50:07Z</time>
        <name>WPT.31</name>
      </trkpt>
      <trkpt lat="31.883609290" lon="-109.176630240">
        <ele>1520.400</ele>
        <time>2021-03-21T22:50:10Z</time>
        <name>WPT.32</name>
      </trkpt>
      <trkpt lat="31.883609470" lon="-109.176587090">
        <ele>1519.000</ele>
        <time>2021-03-21T22:50:14Z</time>
        <name>WPT.33</name>
      </trkpt>
      <trkpt lat="31.883608900" lon="-109.176538380">
        <ele>1516.900</ele>
        <time>2021-03-21T22:50:18Z</time>
        <name>WPT.34</name>
      </trkpt>
      <trkpt lat="31.883610470" lon="-109.176495510">
        <ele>1517.100</ele>
        <time>2021-03-21T22:50:21Z</time>
        <name>WPT.35</name>
      </trkpt>
      <trkpt lat="31.883606340" lon="-109.176445860">
        <ele>1518.000</ele>
        <time>2021-03-21T22:50:25Z</time>
        <name>WPT.36</name>
      </trkpt>
      <trkpt lat="31.883596720" lon="-109.176400440">
        <ele>1520.000</ele>
        <time>2021-03-21T22:50:29Z</time>
        <name>WPT.37</name>
      </trkpt>
      <trkpt lat="31.883592440" lon="-109.176355830">
        <ele>1519.600</ele>
        <time>2021-03-21T22:50:35Z</time>
        <name>WPT.38</name>
      </trkpt>
      <trkpt lat="31.883585660" lon="-109.176306330">
        <ele>1521.000</ele>
        <time>2021-03-21T22:50:42Z</time>
        <name>WPT.39</name>
      </trkpt>
      <trkpt lat="31.883615080" lon="-109.176278700">
        <ele>1523.000</ele>
        <time>2021-03-21T22:50:49Z</time>
        <name>WPT.40</name>
      </trkpt>
      <trkpt lat="31.883651470" lon="-109.176294660">
        <ele>1524.200</ele>
        <time>2021-03-21T22:51:00Z</time>
        <name>WPT.41</name>
      </trkpt>
      <trkpt lat="31.883684700" lon="-109.176314490">
        <ele>1523.200</ele>
        <time>2021-03-21T22:51:06Z</time>
        <name>WPT.42</name>
      </trkpt>
      <trkpt lat="31.883717840" lon="-109.176335760">
        <ele>1521.900</ele>
        <time>2021-03-21T22:51:11Z</time>
        <name>WPT.43</name>
      </trkpt>
      <trkpt lat="31.883749610" lon="-109.176364890">
        <ele>1522.600</ele>
        <time>2021-03-21T22:51:15Z</time>
        <name>WPT.44</name>
      </trkpt>
      <trkpt lat="31.883774910" lon="-109.176399750">
        <ele>1522.700</ele>
        <time>2021-03-21T22:51:20Z</time>
        <name>WPT.45</name>
      </trkpt>
      <trkpt lat="31.883817700" lon="-109.176396510">
        <ele>1524.500</ele>
        <time>2021-03-21T22:51:26Z</time>
        <name>WPT.46</name>
      </trkpt>
      <trkpt lat="31.883855840" lon="-109.176380330">
        <ele>1524.300</ele>
        <time>2021-03-21T22:51:40Z</time>
        <name>WPT.47</name>
      </trkpt>
      <trkpt lat="31.883893310" lon="-109.176356310">
        <ele>1525.600</ele>
        <time>2021-03-21T22:51:44Z</time>
        <name>WPT.48</name>
      </trkpt>
      <trkpt lat="31.883925210" lon="-109.176332080">
        <ele>1523.500</ele>
        <time>2021-03-21T22:51:48Z</time>
        <name>WPT.49</name>
      </trkpt>
      <trkpt lat="31.883962660" lon="-109.176313680">
        <ele>1524.000</ele>
        <time>2021-03-21T22:51:52Z</time>
        <name>WPT.50</name>
      </trkpt>
      <trkpt lat="31.884003690" lon="-109.176305160">
        <ele>1528.100</ele>
        <time>2021-03-21T22:51:57Z</time>
        <name>WPT.51</name>
      </trkpt>
      <trkpt lat="31.884041890" lon="-109.176303830">
        <ele>1531.000</ele>
        <time>2021-03-21T22:52:02Z</time>
        <name>WPT.52</name>
      </trkpt>
      <trkpt lat="31.884086420" lon="-109.176295970">
        <ele>1528.900</ele>
        <time>2021-03-21T22:52:07Z</time>
        <name>WPT.53</name>
      </trkpt>
      <trkpt lat="31.884131480" lon="-109.176282790">
        <ele>1526.600</ele>
        <time>2021-03-21T22:52:12Z</time>
        <name>WPT.54</name>
      </trkpt>
      <trkpt lat="31.884167330" lon="-109.176262660">
        <ele>1527.000</ele>
        <time>2021-03-21T22:52:17Z</time>
        <name>WPT.55</name>
      </trkpt>
      <trkpt lat="31.884202910" lon="-109.176274760">
        <ele>1524.300</ele>
        <time>2021-03-21T22:52:26Z</time>
        <name>WPT.56</name>
      </trkpt>
      <trkpt lat="31.884232110" lon="-109.176310590">
        <ele>1525.000</ele>
        <time>2021-03-21T22:52:35Z</time>
        <name>WPT.57</name>
      </trkpt>
      <trkpt lat="31.884267750" lon="-109.176333510">
        <ele>1524.200</ele>
        <time>2021-03-21T22:52:42Z</time>
        <name>WPT.58</name>
      </trkpt>
      <trkpt lat="31.884300400" lon="-109.176353580">
        <ele>1527.000</ele>
        <time>2021-03-21T22:52:50Z</time>
        <name>WPT.59</name>
      </trkpt>
      <trkpt lat="31.884342030" lon="-109.176352450">
        <ele>1529.000</ele>
        <time>2021-03-21T22:52:56Z</time>
        <name>WPT.60</name>
      </trkpt>
      <trkpt lat="31.884376910" lon="-109.176337740">
        <ele>1529.400</ele>
        <time>2021-03-21T22:53:00Z</time>
        <name>WPT.61</name>
      </trkpt>
      <trkpt lat="31.884417280" lon="-109.176335680">
        <ele>1530.300</ele>
        <time>2021-03-21T22:53:05Z</time>
        <name>WPT.62</name>
      </trkpt>
      <trkpt lat="31.884457010" lon="-109.176321080">
        <ele>1530.300</ele>
        <time>2021-03-21T22:53:10Z</time>
        <name>WPT.63</name>
      </trkpt>
      <trkpt lat="31.884499030" lon="-109.176306830">
        <ele>1528.900</ele>
        <time>2021-03-21T22:53:15Z</time>
        <name>WPT.64</name>
      </trkpt>
      <trkpt lat="31.884529490" lon="-109.176269710">
        <ele>1524.300</ele>
        <time>2021-03-21T22:53:20Z</time>
        <name>WPT.65</name>
      </trkpt>
      <trkpt lat="31.884551260" lon="-109.176232960">
        <ele>1523.500</ele>
        <time>2021-03-21T22:53:25Z</time>
        <name>WPT.66</name>
      </trkpt>
      <trkpt lat="31.884560840" lon="-109.176187450">
        <ele>1524.000</ele>
        <time>2021-03-21T22:53:31Z</time>
        <name>WPT.67</name>
      </trkpt>
      <trkpt lat="31.884568500" lon="-109.176144980">
        <ele>1522.200</ele>
        <time>2021-03-21T22:53:39Z</time>
        <name>WPT.68</name>
      </trkpt>
      <trkpt lat="31.884549370" lon="-109.176103150">
        <ele>1520.400</ele>
        <time>2021-03-21T22:53:45Z</time>
        <name>WPT.69</name>
      </trkpt>
      <trkpt lat="31.884530320" lon="-109.176065960">
        <ele>1519.300</ele>
        <time>2021-03-21T22:53:52Z</time>
        <name>WPT.70</name>
      </trkpt>
      <trkpt lat="31.884542170" lon="-109.176020160">
        <ele>1519.900</ele>
        <time>2021-03-21T22:53:57Z</time>
        <name>WPT.71</name>
      </trkpt>
      <trkpt lat="31.884554490" lon="-109.175978790">
        <ele>1520.500</ele>
        <time>2021-03-21T22:54:14Z</time>
        <name>WPT.72</name>
      </trkpt>
      <trkpt lat="31.884541600" lon="-109.175938990">
        <ele>1518.400</ele>
        <time>2021-03-21T22:54:20Z</time>
        <name>WPT.73</name>
      </trkpt>
      <trkpt lat="31.884557980" lon="-109.175900420">
        <ele>1518.700</ele>
        <time>2021-03-21T22:54:28Z</time>
        <name>WPT.74</name>
      </trkpt>
      <trkpt lat="31.884588060" lon="-109.175872890">
        <ele>1520.200</ele>
        <time>2021-03-21T22:54:36Z</time>
        <name>WPT.75</name>
      </trkpt>
      <trkpt lat="31.884604960" lon="-109.175831690">
        <ele>1521.800</ele>
        <time>2021-03-21T22:54:42Z</time>
        <name>WPT.76</name>
      </trkpt>
      <trkpt lat="31.884630830" lon="-109.175792580">
        <ele>1526.000</ele>
        <time>2021-03-21T22:54:48Z</time>
        <name>WPT.77</name>
      </trkpt>
      <trkpt lat="31.884651170" lon="-109.175748970">
        <ele>1523.800</ele>
        <time>2021-03-21T22:54:53Z</time>
        <name>WPT.78</name>
      </trkpt>
      <trkpt lat="31.884640140" lon="-109.175706820">
        <ele>1521.200</ele>
        <time>2021-03-21T22:54:57Z</time>
        <name>WPT.79</name>
      </trkpt>
      <trkpt lat="31.884639160" lon="-109.175662250">
        <ele>1519.000</ele>
        <time>2021-03-21T22:55:01Z</time>
        <name>WPT.80</name>
      </trkpt>
      <trkpt lat="31.884649760" lon="-109.175620340">
        <ele>1517.300</ele>
        <time>2021-03-21T22:55:06Z</time>
        <name>WPT.81</name>
      </trkpt>
      <trkpt lat="31.884656990" lon="-109.175571300">
        <ele>1517.000</ele>
        <time>2021-03-21T22:55:10Z</time>
        <name>WPT.82</name>
      </trkpt>
      <trkpt lat="31.884670960" lon="-109.175522790">
        <ele>1517.900</ele>
        <time>2021-03-21T22:55:14Z</time>
        <name>WPT.83</name>
      </trkpt>
      <trkpt lat="31.884678280" lon="-109.175473550">
        <ele>1518.100</ele>
        <time>2021-03-21T22:55:18Z</time>
        <name>WPT.84</name>
      </trkpt>
      <trkpt lat="31.884675730" lon="-109.175425620">
        <ele>1516.800</ele>
        <time>2021-03-21T22:55:22Z</time>
        <name>WPT.85</name>
      </trkpt>
      <trkpt lat="31.884681710" lon="-109.175382700">
        <ele>1515.800</ele>
        <time>2021-03-21T22:55:26Z</time>
        <name>WPT.86</name>
      </trkpt>
      <trkpt lat="31.884698340" lon="-109.175340400">
        <ele>1517.800</ele>
        <time>2021-03-21T22:55:30Z</time>
        <name>WPT.87</name>
      </trkpt>
      <trkpt lat="31.884712790" lon="-109.175293260">
        <ele>1520.800</ele>
        <time>2021-03-21T22:55:35Z</time>
        <name>WPT.88</name>
      </trkpt>
      <trkpt lat="31.884718100" lon="-109.175243010">
        <ele>1521.500</ele>
        <time>2021-03-21T22:55:40Z</time>
        <name>WPT.89</name>
      </trkpt>
      <trkpt lat="31.884713920" lon="-109.175192750">
        <ele>1520.700</ele>
        <time>2021-03-21T22:55:44Z</time>
        <name>WPT.90</name>
      </trkpt>
      <trkpt lat="31.884715140" lon="-109.175147280">
        <ele>1519.900</ele>
        <time>2021-03-21T22:55:48Z</time>
        <name>WPT.91</name>
      </trkpt>
      <trkpt lat="31.884727410" lon="-109.175096020">
        <ele>1517.500</ele>
        <time>2021-03-21T22:55:52Z</time>
        <name>WPT.92</name>
      </trkpt>
      <trkpt lat="31.884724950" lon="-109.175045350">
        <ele>1518.300</ele>
        <time>2021-03-21T22:55:57Z</time>
        <name>WPT.93</name>
      </trkpt>
      <trkpt lat="31.884755000" lon="-109.175010220">
        <ele>1519.800</ele>
        <time>2021-03-21T22:56:02Z</time>
        <name>WPT.94</name>
      </trkpt>
      <trkpt lat="31.884791680" lon="-109.174986170">
        <ele>1516.000</ele>
        <time>2021-03-21T22:56:07Z</time>
        <name>WPT.95</name>
      </trkpt>
      <trkpt lat="31.884804210" lon="-109.174944290">
        <ele>1515.600</ele>
        <time>2021-03-21T22:56:12Z</time>
        <name>WPT.96</name>
      </trkpt>
      <trkpt lat="31.884831350" lon="-109.174914240">
        <ele>1514.400</ele>
        <time>2021-03-21T22:56:16Z</time>
        <name>WPT.97</name>
      </trkpt>
      <trkpt lat="31.884864610" lon="-109.174893320">
        <ele>1515.700</ele>
        <time>2021-03-21T22:56:20Z</time>
        <name>WPT.98</name>
      </trkpt>
      <trkpt lat="31.884904110" lon="-109.174903560">
        <ele>1515.000</ele>
        <time>2021-03-21T22:56:26Z</time>
        <name>WPT.99</name>
      </trkpt>
      <trkpt lat="31.884943240" lon="-109.174915850">
        <ele>1515.800</ele>
        <time>2021-03-21T22:56:32Z</time>
        <name>WPT.100</name>
      </trkpt>
      <trkpt lat="31.884984580" lon="-109.174909390">
        <ele>1516.300</ele>
        <time>2021-03-21T22:56:38Z</time>
        <name>WPT.101</name>
      </trkpt>
      <trkpt lat="31.885016450" lon="-109.174886730">
        <ele>1516.400</ele>
        <time>2021-03-21T22:56:42Z</time>
        <name>WPT.102</name>
      </trkpt>
      <trkpt lat="31.885058150" lon="-109.174881890">
        <ele>1513.900</ele>
        <time>2021-03-21T22:56:47Z</time>
        <name>WPT.103</name>
      </trkpt>
      <trkpt lat="31.885094310" lon="-109.174894180">
        <ele>1513.500</ele>
        <time>2021-03-21T22:56:52Z</time>
        <name>WPT.104</name>
      </trkpt>
      <trkpt lat="31.885137300" lon="-109.174900290">
        <ele>1513.500</ele>
        <time>2021-03-21T22:56:59Z</time>
        <name>WPT.105</name>
      </trkpt>
      <trkpt lat="31.885174910" lon="-109.174906570">
        <ele>1514.400</ele>
        <time>2021-03-21T22:57:03Z</time>
        <name>WPT.106</name>
      </trkpt>
      <trkpt lat="31.885211190" lon="-109.174912390">
        <ele>1516.300</ele>
        <time>2021-03-21T22:57:09Z</time>
        <name>WPT.107</name>
      </trkpt>
      <trkpt lat="31.885250500" lon="-109.174891510">
        <ele>1518.200</ele>
        <time>2021-03-21T22:57:16Z</time>
        <name>WPT.108</name>
      </trkpt>
      <trkpt lat="31.885273640" lon="-109.174854360">
        <ele>1518.000</ele>
        <time>2021-03-21T22:57:20Z</time>
        <name>WPT.109</name>
      </trkpt>
      <trkpt lat="31.885300630" lon="-109.174816100">
        <ele>1518.200</ele>
        <time>2021-03-21T22:57:25Z</time>
        <name>WPT.110</name>
      </trkpt>
      <trkpt lat="31.885338810" lon="-109.174789530">
        <ele>1519.200</ele>
        <time>2021-03-21T22:57:30Z</time>
        <name>WPT.111</name>
      </trkpt>
      <trkpt lat="31.885368150" lon="-109.174745040">
        <ele>1517.200</ele>
        <time>2021-03-21T22:57:34Z</time>
        <name>WPT.112</name>
      </trkpt>
      <trkpt lat="31.885398660" lon="-109.174708110">
        <ele>1518.100</ele>
        <time>2021-03-21T22:57:38Z</time>
        <name>WPT.113</name>
      </trkpt>
      <trkpt lat="31.885421650" lon="-109.174672590">
        <ele>1518.200</ele>
        <time>2021-03-21T22:57:41Z</time>
        <name>WPT.114</name>
      </trkpt>
      <trkpt lat="31.885447680" lon="-109.174641120">
        <ele>1516.800</ele>
        <time>2021-03-21T22:57:44Z</time>
        <name>WPT.115</name>
      </trkpt>
      <trkpt lat="31.885473510" lon="-109.174603540">
        <ele>1516.600</ele>
        <time>2021-03-21T22:57:48Z</time>
        <name>WPT.116</name>
      </trkpt>
      <trkpt lat="31.885497630" lon="-109.174571070">
        <ele>1516.200</ele>
        <time>2021-03-21T22:57:53Z</time>
        <name>WPT.117</name>
      </trkpt>
      <trkpt lat="31.885530540" lon="-109.174551140">
        <ele>1515.300</ele>
        <time>2021-03-21T22:58:04Z</time>
        <name>WPT.118</name>
      </trkpt>
      <trkpt lat="31.885563790" lon="-109.174573580">
        <ele>1513.100</ele>
        <time>2021-03-21T22:58:27Z</time>
        <name>WPT.119</name>
      </trkpt>
      <trkpt lat="31.885600230" lon="-109.174586830">
        <ele>1515.200</ele>
        <time>2021-03-21T22:58:41Z</time>
        <name>WPT.120</name>
      </trkpt>
      <trkpt lat="31.885641860" lon="-109.174598340">
        <ele>1515.600</ele>
        <time>2021-03-21T22:58:52Z</time>
        <name>WPT.121</name>
      </trkpt>
      <trkpt lat="31.885676600" lon="-109.174621770">
        <ele>1515.900</ele>
        <time>2021-03-21T22:58:56Z</time>
        <name>WPT.122</name>
      </trkpt>
      <trkpt lat="31.885707410" lon="-109.174658680">
        <ele>1519.100</ele>
        <time>2021-03-21T22:59:01Z</time>
        <name>WPT.123</name>
      </trkpt>
      <trkpt lat="31.885741770" lon="-109.174676180">
        <ele>1519.100</ele>
        <time>2021-03-21T22:59:15Z</time>
        <name>WPT.124</name>
      </trkpt>
      <trkpt lat="31.885764620" lon="-109.174711380">
        <ele>1516.900</ele>
        <time>2021-03-21T22:59:21Z</time>
        <name>WPT.125</name>
      </trkpt>
      <trkpt lat="31.885798080" lon="-109.174734020">
        <ele>1515.100</ele>
        <time>2021-03-21T22:59:26Z</time>
        <name>WPT.126</name>
      </trkpt>
      <trkpt lat="31.885838570" lon="-109.174730460">
        <ele>1516.400</ele>
        <time>2021-03-21T22:59:31Z</time>
        <name>WPT.127</name>
      </trkpt>
      <trkpt lat="31.885871710" lon="-109.174705630">
        <ele>1517.000</ele>
        <time>2021-03-21T22:59:35Z</time>
        <name>WPT.128</name>
      </trkpt>
      <trkpt lat="31.885894660" lon="-109.174664810">
        <ele>1517.500</ele>
        <time>2021-03-21T22:59:41Z</time>
        <name>WPT.129</name>
      </trkpt>
      <trkpt lat="31.885924130" lon="-109.174625260">
        <ele>1516.500</ele>
        <time>2021-03-21T22:59:46Z</time>
        <name>WPT.130</name>
      </trkpt>
      <trkpt lat="31.885940490" lon="-109.174587020">
        <ele>1515.600</ele>
        <time>2021-03-21T22:59:51Z</time>
        <name>WPT.131</name>
      </trkpt>
      <trkpt lat="31.885980490" lon="-109.174557380">
        <ele>1517.100</ele>
        <time>2021-03-21T22:59:55Z</time>
        <name>WPT.132</name>
      </trkpt>
      <trkpt lat="31.886012090" lon="-109.174533380">
        <ele>1517.600</ele>
        <time>2021-03-21T22:59:59Z</time>
        <name>WPT.133</name>
      </trkpt>
      <trkpt lat="31.886037020" lon="-109.174500510">
        <ele>1518.800</ele>
        <time>2021-03-21T23:00:03Z</time>
        <name>WPT.134</name>
      </trkpt>
      <trkpt lat="31.886056970" lon="-109.174460930">
        <ele>1518.900</ele>
        <time>2021-03-21T23:00:08Z</time>
        <name>WPT.135</name>
      </trkpt>
      <trkpt lat="31.886078100" lon="-109.174410640">
        <ele>1517.000</ele>
        <time>2021-03-21T23:00:13Z</time>
        <name>WPT.136</name>
      </trkpt>
      <trkpt lat="31.886121410" lon="-109.174388350">
        <ele>1513.600</ele>
        <time>2021-03-21T23:00:17Z</time>
        <name>WPT.137</name>
      </trkpt>
      <trkpt lat="31.886162570" lon="-109.174374390">
        <ele>1515.000</ele>
        <time>2021-03-21T23:00:22Z</time>
        <name>WPT.138</name>
      </trkpt>
      <trkpt lat="31.886201570" lon="-109.174380290">
        <ele>1519.000</ele>
        <time>2021-03-21T23:00:28Z</time>
        <name>WPT.139</name>
      </trkpt>
      <trkpt lat="31.886236750" lon="-109.174392260">
        <ele>1519.000</ele>
        <time>2021-03-21T23:00:32Z</time>
        <name>WPT.140</name>
      </trkpt>
      <trkpt lat="31.886273530" lon="-109.174408110">
        <ele>1518.100</ele>
        <time>2021-03-21T23:00:39Z</time>
        <name>WPT.141</name>
      </trkpt>
      <trkpt lat="31.886313130" lon="-109.174423320">
        <ele>1517.800</ele>
        <time>2021-03-21T23:00:44Z</time>
        <name>WPT.142</name>
      </trkpt>
      <trkpt lat="31.886349330" lon="-109.174438800">
        <ele>1518.100</ele>
        <time>2021-03-21T23:00:48Z</time>
        <name>WPT.143</name>
      </trkpt>
      <trkpt lat="31.886376980" lon="-109.174465990">
        <ele>1518.200</ele>
        <time>2021-03-21T23:00:54Z</time>
        <name>WPT.144</name>
      </trkpt>
      <trkpt lat="31.886405140" lon="-109.174430350">
        <ele>1516.300</ele>
        <time>2021-03-21T23:01:03Z</time>
        <name>WPT.145</name>
      </trkpt>
      <trkpt lat="31.886434800" lon="-109.174399290">
        <ele>1513.900</ele>
        <time>2021-03-21T23:01:07Z</time>
        <name>WPT.146</name>
      </trkpt>
      <trkpt lat="31.886471130" lon="-109.174377160">
        <ele>1516.400</ele>
        <time>2021-03-21T23:01:11Z</time>
        <name>WPT.147</name>
      </trkpt>
      <trkpt lat="31.886503890" lon="-109.174354470">
        <ele>1518.800</ele>
        <time>2021-03-21T23:01:15Z</time>
        <name>WPT.148</name>
      </trkpt>
      <trkpt lat="31.886529970" lon="-109.174320940">
        <ele>1518.000</ele>
        <time>2021-03-21T23:01:24Z</time>
        <name>WPT.149</name>
      </trkpt>
      <trkpt lat="31.886557820" lon="-109.174287270">
        <ele>1515.600</ele>
        <time>2021-03-21T23:01:28Z</time>
        <name>WPT.150</name>
      </trkpt>
      <trkpt lat="31.886587790" lon="-109.174257580">
        <ele>1516.200</ele>
        <time>2021-03-21T23:01:32Z</time>
        <name>WPT.151</name>
      </trkpt>
      <trkpt lat="31.886623540" lon="-109.174227200">
        <ele>1516.100</ele>
        <time>2021-03-21T23:01:37Z</time>
        <name>WPT.152</name>
      </trkpt>
      <trkpt lat="31.886663510" lon="-109.174208500">
        <ele>1515.600</ele>
        <time>2021-03-21T23:01:41Z</time>
        <name>WPT.153</name>
      </trkpt>
      <trkpt lat="31.886701300" lon="-109.174196490">
        <ele>1517.000</ele>
        <time>2021-03-21T23:01:45Z</time>
        <name>WPT.154</name>
      </trkpt>
      <trkpt lat="31.886736040" lon="-109.174179590">
        <ele>1517.400</ele>
        <time>2021-03-21T23:01:49Z</time>
        <name>WPT.155</name>
      </trkpt>
      <trkpt lat="31.886773300" lon="-109.174168910">
        <ele>1516.700</ele>
        <time>2021-03-21T23:01:53Z</time>
        <name>WPT.156</name>
      </trkpt>
      <trkpt lat="31.886812220" lon="-109.174152680">
        <ele>1516.000</ele>
        <time>2021-03-21T23:01:57Z</time>
        <name>WPT.157</name>
      </trkpt>
      <trkpt lat="31.886854710" lon="-109.174137200">
        <ele>1518.200</ele>
        <time>2021-03-21T23:02:01Z</time>
        <name>WPT.158</name>
      </trkpt>
      <trkpt lat="31.886891630" lon="-109.174124130">
        <ele>1518.700</ele>
        <time>2021-03-21T23:02:04Z</time>
        <name>WPT.159</name>
      </trkpt>
      <trkpt lat="31.886915990" lon="-109.174083580">
        <ele>1517.100</ele>
        <time>2021-03-21T23:02:10Z</time>
        <name>WPT.160</name>
      </trkpt>
      <trkpt lat="31.886942010" lon="-109.174052380">
        <ele>1517.400</ele>
        <time>2021-03-21T23:02:13Z</time>
        <name>WPT.161</name>
      </trkpt>
      <trkpt lat="31.886974650" lon="-109.174023750">
        <ele>1518.100</ele>
        <time>2021-03-21T23:02:17Z</time>
        <name>WPT.162</name>
      </trkpt>
      <trkpt lat="31.887007300" lon="-109.173990030">
        <ele>1517.100</ele>
        <time>2021-03-21T23:02:21Z</time>
        <name>WPT.163</name>
      </trkpt>
      <trkpt lat="31.887041720" lon="-109.173967940">
        <ele>1516.300</ele>
        <time>2021-03-21T23:02:25Z</time>
        <name>WPT.164</name>
      </trkpt>
      <trkpt lat="31.887062710" lon="-109.173932130">
        <ele>1515.600</ele>
        <time>2021-03-21T23:02:31Z</time>
        <name>WPT.165</name>
      </trkpt>
      <trkpt lat="31.887069620" lon="-109.173887050">
        <ele>1515.400</ele>
        <time>2021-03-21T23:02:35Z</time>
        <name>WPT.166</name>
      </trkpt>
      <trkpt lat="31.887088020" lon="-109.173842320">
        <ele>1515.700</ele>
        <time>2021-03-21T23:02:40Z</time>
        <name>WPT.167</name>
      </trkpt>
      <trkpt lat="31.887127820" lon="-109.173825870">
        <ele>1513.800</ele>
        <time>2021-03-21T23:02:48Z</time>
        <name>WPT.168</name>
      </trkpt>
      <trkpt lat="31.887148100" lon="-109.173790820">
        <ele>1512.000</ele>
        <time>2021-03-21T23:02:52Z</time>
        <name>WPT.169</name>
      </trkpt>
      <trkpt lat="31.887180430" lon="-109.173761420">
        <ele>1511.400</ele>
        <time>2021-03-21T23:02:57Z</time>
        <name>WPT.170</name>
      </trkpt>
      <trkpt lat="31.887217150" lon="-109.173762880">
        <ele>1514.800</ele>
        <time>2021-03-21T23:03:03Z</time>
        <name>WPT.171</name>
      </trkpt>
      <trkpt lat="31.887255580" lon="-109.173738940">
        <ele>1513.200</ele>
        <time>2021-03-21T23:03:08Z</time>
        <name>WPT.172</name>
      </trkpt>
      <trkpt lat="31.887286720" lon="-109.173713210">
        <ele>1514.400</ele>
        <time>2021-03-21T23:03:12Z</time>
        <name>WPT.173</name>
      </trkpt>
      <trkpt lat="31.887319390" lon="-109.173683740">
        <ele>1514.600</ele>
        <time>2021-03-21T23:03:17Z</time>
        <name>WPT.174</name>
      </trkpt>
      <trkpt lat="31.887351060" lon="-109.173662290">
        <ele>1516.700</ele>
        <time>2021-03-21T23:03:26Z</time>
        <name>WPT.175</name>
      </trkpt>
      <trkpt lat="31.887385140" lon="-109.173641050">
        <ele>1516.700</ele>
        <time>2021-03-21T23:03:31Z</time>
        <name>WPT.176</name>
      </trkpt>
      <trkpt lat="31.887426820" lon="-109.173619650">
        <ele>1513.500</ele>
        <time>2021-03-21T23:03:39Z</time>
        <name>WPT.177</name>
      </trkpt>
      <trkpt lat="31.887461900" lon="-109.173596460">
        <ele>1514.300</ele>
        <time>2021-03-21T23:03:43Z</time>
        <name>WPT.178</name>
      </trkpt>
      <trkpt lat="31.887495870" lon="-109.173567810">
        <ele>1515.300</ele>
        <time>2021-03-21T23:03:47Z</time>
        <name>WPT.179</name>
      </trkpt>
      <trkpt lat="31.887528310" lon="-109.173541920">
        <ele>1513.300</ele>
        <time>2021-03-21T23:03:51Z</time>
        <name>WPT.180</name>
      </trkpt>
      <trkpt lat="31.887560550" lon="-109.173507230">
        <ele>1513.100</ele>
        <time>2021-03-21T23:03:56Z</time>
        <name>WPT.181</name>
      </trkpt>
      <trkpt lat="31.887597080" lon="-109.173472480">
        <ele>1515.800</ele>
        <time>2021-03-21T23:04:00Z</time>
        <name>WPT.182</name>
      </trkpt>
      <trkpt lat="31.887632270" lon="-109.173449330">
        <ele>1514.500</ele>
        <time>2021-03-21T23:04:04Z</time>
        <name>WPT.183</name>
      </trkpt>
      <trkpt lat="31.887659060" lon="-109.173419230">
        <ele>1514.900</ele>
        <time>2021-03-21T23:04:08Z</time>
        <name>WPT.184</name>
      </trkpt>
      <trkpt lat="31.887693070" lon="-109.173394980">
        <ele>1516.400</ele>
        <time>2021-03-21T23:04:12Z</time>
        <name>WPT.185</name>
      </trkpt>
      <trkpt lat="31.887729980" lon="-109.173378300">
        <ele>1518.400</ele>
        <time>2021-03-21T23:04:23Z</time>
        <name>WPT.186</name>
      </trkpt>
      <trkpt lat="31.887761400" lon="-109.173353490">
        <ele>1517.800</ele>
        <time>2021-03-21T23:04:27Z</time>
        <name>WPT.187</name>
      </trkpt>
      <trkpt lat="31.887785790" lon="-109.173318300">
        <ele>1518.100</ele>
        <time>2021-03-21T23:04:39Z</time>
        <name>WPT.188</name>
      </trkpt>
      <trkpt lat="31.887819530" lon="-109.173286460">
        <ele>1517.100</ele>
        <time>2021-03-21T23:04:44Z</time>
        <name>WPT.189</name>
      </trkpt>
      <trkpt lat="31.887842550" lon="-109.173251500">
        <ele>1516.200</ele>
        <time>2021-03-21T23:04:48Z</time>
        <name>WPT.190</name>
      </trkpt>
      <trkpt lat="31.887863790" lon="-109.173208700">
        <ele>1515.500</ele>
        <time>2021-03-21T23:04:53Z</time>
        <name>WPT.191</name>
      </trkpt>
      <trkpt lat="31.887895360" lon="-109.173185990">
        <ele>1515.900</ele>
        <time>2021-03-21T23:04:57Z</time>
        <name>WPT.192</name>
      </trkpt>
      <trkpt lat="31.887925120" lon="-109.173150900">
        <ele>1516.300</ele>
        <time>2021-03-21T23:05:01Z</time>
        <name>WPT.193</name>
      </trkpt>
      <trkpt lat="31.887947010" lon="-109.173112730">
        <ele>1516.500</ele>
        <time>2021-03-21T23:05:06Z</time>
        <name>WPT.194</name>
      </trkpt>
      <trkpt lat="31.887955030" lon="-109.173063820">
        <ele>1515.300</ele>
        <time>2021-03-21T23:05:11Z</time>
        <name>WPT.195</name>
      </trkpt>
      <trkpt lat="31.887965580" lon="-109.173015410">
        <ele>1513.400</ele>
        <time>2021-03-21T23:05:19Z</time>
        <name>WPT.196</name>
      </trkpt>
      <trkpt lat="31.887981680" lon="-109.172974190">
        <ele>1512.900</ele>
        <time>2021-03-21T23:05:24Z</time>
        <name>WPT.197</name>
      </trkpt>
      <trkpt lat="31.888003450" lon="-109.172939950">
        <ele>1512.100</ele>
        <time>2021-03-21T23:05:28Z</time>
        <name>WPT.198</name>
      </trkpt>
      <trkpt lat="31.888020800" lon="-109.172899310">
        <ele>1511.900</ele>
        <time>2021-03-21T23:05:32Z</time>
        <name>WPT.199</name>
      </trkpt>
      <trkpt lat="31.888034200" lon="-109.172856950">
        <ele>1510.800</ele>
        <time>2021-03-21T23:05:36Z</time>
        <name>WPT.200</name>
      </trkpt>
      <trkpt lat="31.888058790" lon="-109.172823050">
        <ele>1511.100</ele>
        <time>2021-03-21T23:05:40Z</time>
        <name>WPT.201</name>
      </trkpt>
      <trkpt lat="31.888064550" lon="-109.172774580">
        <ele>1511.000</ele>
        <time>2021-03-21T23:05:44Z</time>
        <name>WPT.202</name>
      </trkpt>
      <trkpt lat="31.888078440" lon="-109.172730020">
        <ele>1510.400</ele>
        <time>2021-03-21T23:05:48Z</time>
        <name>WPT.203</name>
      </trkpt>
      <trkpt lat="31.888093270" lon="-109.172684550">
        <ele>1513.000</ele>
        <time>2021-03-21T23:05:53Z</time>
        <name>WPT.204</name>
      </trkpt>
      <trkpt lat="31.888091520" lon="-109.172640360">
        <ele>1513.300</ele>
        <time>2021-03-21T23:05:57Z</time>
        <name>WPT.205</name>
      </trkpt>
      <trkpt lat="31.888094810" lon="-109.172592060">
        <ele>1509.800</ele>
        <time>2021-03-21T23:06:01Z</time>
        <name>WPT.206</name>
      </trkpt>
      <trkpt lat="31.888114860" lon="-109.172550690">
        <ele>1507.900</ele>
        <time>2021-03-21T23:06:05Z</time>
        <name>WPT.207</name>
      </trkpt>
      <trkpt lat="31.888140670" lon="-109.172519870">
        <ele>1506.500</ele>
        <time>2021-03-21T23:06:10Z</time>
        <name>WPT.208</name>
      </trkpt>
      <trkpt lat="31.888151670" lon="-109.172472840">
        <ele>1506.100</ele>
        <time>2021-03-21T23:06:22Z</time>
        <name>WPT.209</name>
      </trkpt>
      <trkpt lat="31.888149530" lon="-109.172422540">
        <ele>1507.700</ele>
        <time>2021-03-21T23:06:26Z</time>
        <name>WPT.210</name>
      </trkpt>
      <trkpt lat="31.888151640" lon="-109.172380300">
        <ele>1509.900</ele>
        <time>2021-03-21T23:06:29Z</time>
        <name>WPT.211</name>
      </trkpt>
      <trkpt lat="31.888138790" lon="-109.172334030">
        <ele>1510.000</ele>
        <time>2021-03-21T23:06:34Z</time>
        <name>WPT.212</name>
      </trkpt>
      <trkpt lat="31.888155410" lon="-109.172291600">
        <ele>1506.900</ele>
        <time>2021-03-21T23:06:39Z</time>
        <name>WPT.213</name>
      </trkpt>
      <trkpt lat="31.888179310" lon="-109.172257050">
        <ele>1505.200</ele>
        <time>2021-03-21T23:06:44Z</time>
        <name>WPT.214</name>
      </trkpt>
      <trkpt lat="31.888197520" lon="-109.172217080">
        <ele>1504.900</ele>
        <time>2021-03-21T23:06:48Z</time>
        <name>WPT.215</name>
      </trkpt>
      <trkpt lat="31.888198420" lon="-109.172170840">
        <ele>1506.500</ele>
        <time>2021-03-21T23:06:52Z</time>
        <name>WPT.216</name>
      </trkpt>
      <trkpt lat="31.888203390" lon="-109.172120300">
        <ele>1508.500</ele>
        <time>2021-03-21T23:06:57Z</time>
        <name>WPT.217</name>
      </trkpt>
      <trkpt lat="31.888207170" lon="-109.172076190">
        <ele>1509.100</ele>
        <time>2021-03-21T23:07:01Z</time>
        <name>WPT.218</name>
      </trkpt>
      <trkpt lat="31.888231110" lon="-109.172037740">
        <ele>1508.600</ele>
        <time>2021-03-21T23:07:06Z</time>
        <name>WPT.219</name>
      </trkpt>
      <trkpt lat="31.888256690" lon="-109.172004160">
        <ele>1507.400</ele>
        <time>2021-03-21T23:07:10Z</time>
        <name>WPT.220</name>
      </trkpt>
      <trkpt lat="31.888282680" lon="-109.171968930">
        <ele>1508.500</ele>
        <time>2021-03-21T23:07:15Z</time>
        <name>WPT.221</name>
      </trkpt>
      <trkpt lat="31.888313680" lon="-109.171932080">
        <ele>1509.400</ele>
        <time>2021-03-21T23:07:20Z</time>
        <name>WPT.222</name>
      </trkpt>
      <trkpt lat="31.888347380" lon="-109.171906840">
        <ele>1510.000</ele>
        <time>2021-03-21T23:07:24Z</time>
        <name>WPT.223</name>
      </trkpt>
      <trkpt lat="31.888374730" lon="-109.171878790">
        <ele>1510.700</ele>
        <time>2021-03-21T23:07:27Z</time>
        <name>WPT.224</name>
      </trkpt>
      <trkpt lat="31.888413170" lon="-109.171854960">
        <ele>1511.700</ele>
        <time>2021-03-21T23:07:31Z</time>
        <name>WPT.225</name>
      </trkpt>
      <trkpt lat="31.888427770" lon="-109.171816270">
        <ele>1509.200</ele>
        <time>2021-03-21T23:07:44Z</time>
        <name>WPT.226</name>
      </trkpt>
      <trkpt lat="31.888452300" lon="-109.171783220">
        <ele>1508.300</ele>
        <time>2021-03-21T23:07:54Z</time>
        <name>WPT.227</name>
      </trkpt>
      <trkpt lat="31.888486980" lon="-109.171764940">
        <ele>1509.200</ele>
        <time>2021-03-21T23:07:57Z</time>
        <name>WPT.228</name>
      </trkpt>
      <trkpt lat="31.888529150" lon="-109.171760900">
        <ele>1509.000</ele>
        <time>2021-03-21T23:08:01Z</time>
        <name>WPT.229</name>
      </trkpt>
      <trkpt lat="31.888565780" lon="-109.171740110">
        <ele>1507.400</ele>
        <time>2021-03-21T23:08:06Z</time>
        <name>WPT.230</name>
      </trkpt>
      <trkpt lat="31.888595860" lon="-109.171716020">
        <ele>1509.900</ele>
        <time>2021-03-21T23:08:11Z</time>
        <name>WPT.231</name>
      </trkpt>
      <trkpt lat="31.888631670" lon="-109.171689100">
        <ele>1509.700</ele>
        <time>2021-03-21T23:08:29Z</time>
        <name>WPT.232</name>
      </trkpt>
      <trkpt lat="31.888659260" lon="-109.171656250">
        <ele>1507.300</ele>
        <time>2021-03-21T23:08:33Z</time>
        <name>WPT.233</name>
      </trkpt>
      <trkpt lat="31.888686550" lon="-109.171619820">
        <ele>1505.600</ele>
        <time>2021-03-21T23:08:37Z</time>
        <name>WPT.234</name>
      </trkpt>
      <trkpt lat="31.888721860" lon="-109.171600720">
        <ele>1504.400</ele>
        <time>2021-03-21T23:08:42Z</time>
        <name>WPT.235</name>
      </trkpt>
      <trkpt lat="31.888754090" lon="-109.171578660">
        <ele>1504.200</ele>
        <time>2021-03-21T23:08:57Z</time>
        <name>WPT.236</name>
      </trkpt>
      <trkpt lat="31.888793080" lon="-109.171561100">
        <ele>1505.400</ele>
        <time>2021-03-21T23:09:01Z</time>
        <name>WPT.237</name>
      </trkpt>
      <trkpt lat="31.888821750" lon="-109.171525770">
        <ele>1507.800</ele>
        <time>2021-03-21T23:09:43Z</time>
        <name>WPT.238</name>
      </trkpt>
      <trkpt lat="31.888846400" lon="-109.171487730">
        <ele>1507.900</ele>
        <time>2021-03-21T23:09:47Z</time>
        <name>WPT.239</name>
      </trkpt>
      <trkpt lat="31.888874570" lon="-109.171455030">
        <ele>1507.400</ele>
        <time>2021-03-21T23:09:51Z</time>
        <name>WPT.240</name>
      </trkpt>
      <trkpt lat="31.888896390" lon="-109.171413000">
        <ele>1507.200</ele>
        <time>2021-03-21T23:09:56Z</time>
        <name>WPT.241</name>
      </trkpt>
      <trkpt lat="31.888900230" lon="-109.171370440">
        <ele>1510.000</ele>
        <time>2021-03-21T23:10:00Z</time>
        <name>WPT.242</name>
      </trkpt>
      <trkpt lat="31.888913630" lon="-109.171331170">
        <ele>1507.500</ele>
        <time>2021-03-21T23:10:07Z</time>
        <name>WPT.243</name>
      </trkpt>
      <trkpt lat="31.888933960" lon="-109.171285980">
        <ele>1508.000</ele>
        <time>2021-03-21T23:10:11Z</time>
        <name>WPT.244</name>
      </trkpt>
      <trkpt lat="31.888949730" lon="-109.171242480">
        <ele>1507.200</ele>
        <time>2021-03-21T23:10:16Z</time>
        <name>WPT.245</name>
      </trkpt>
      <trkpt lat="31.888977540" lon="-109.171199280">
        <ele>1505.900</ele>
        <time>2021-03-21T23:10:20Z</time>
        <name>WPT.246</name>
      </trkpt>
      <trkpt lat="31.889001300" lon="-109.171167410">
        <ele>1504.800</ele>
        <time>2021-03-21T23:10:23Z</time>
        <name>WPT.247</name>
      </trkpt>
      <trkpt lat="31.889032960" lon="-109.171139270">
        <ele>1504.500</ele>
        <time>2021-03-21T23:10:27Z</time>
        <name>WPT.248</name>
      </trkpt>
      <trkpt lat="31.889062960" lon="-109.171110360">
        <ele>1504.100</ele>
        <time>2021-03-21T23:10:32Z</time>
        <name>WPT.249</name>
      </trkpt>
      <trkpt lat="31.889096530" lon="-109.171077640">
        <ele>1505.200</ele>
        <time>2021-03-21T23:10:36Z</time>
        <name>WPT.250</name>
      </trkpt>
      <trkpt lat="31.889106830" lon="-109.171036240">
        <ele>1505.900</ele>
        <time>2021-03-21T23:10:40Z</time>
        <name>WPT.251</name>
      </trkpt>
      <trkpt lat="31.889099170" lon="-109.170991300">
        <ele>1506.000</ele>
        <time>2021-03-21T23:10:44Z</time>
        <name>WPT.252</name>
      </trkpt>
      <trkpt lat="31.889090030" lon="-109.170938060">
        <ele>1503.500</ele>
        <time>2021-03-21T23:10:49Z</time>
        <name>WPT.253</name>
      </trkpt>
      <trkpt lat="31.889082800" lon="-109.170885850">
        <ele>1504.400</ele>
        <time>2021-03-21T23:10:59Z</time>
        <name>WPT.254</name>
      </trkpt>
      <trkpt lat="31.889086700" lon="-109.170831570">
        <ele>1506.100</ele>
        <time>2021-03-21T23:11:03Z</time>
        <name>WPT.255</name>
      </trkpt>
      <trkpt lat="31.889103640" lon="-109.170789210">
        <ele>1507.300</ele>
        <time>2021-03-21T23:11:07Z</time>
        <name>WPT.256</name>
      </trkpt>
      <trkpt lat="31.889114810" lon="-109.170738530">
        <ele>1506.800</ele>
        <time>2021-03-21T23:11:13Z</time>
        <name>WPT.257</name>
      </trkpt>
      <trkpt lat="31.889122810" lon="-109.170693070">
        <ele>1505.500</ele>
        <time>2021-03-21T23:11:17Z</time>
        <name>WPT.258</name>
      </trkpt>
      <trkpt lat="31.889135930" lon="-109.170645050">
        <ele>1505.500</ele>
        <time>2021-03-21T23:11:22Z</time>
        <name>WPT.259</name>
      </trkpt>
      <trkpt lat="31.889139010" lon="-109.170601700">
        <ele>1504.900</ele>
        <time>2021-03-21T23:11:36Z</time>
        <name>WPT.260</name>
      </trkpt>
      <trkpt lat="31.889139540" lon="-109.170550510">
        <ele>1504.800</ele>
        <time>2021-03-21T23:11:51Z</time>
        <name>WPT.261</name>
      </trkpt>
      <trkpt lat="31.889141040" lon="-109.170503010">
        <ele>1500.500</ele>
        <time>2021-03-21T23:11:57Z</time>
        <name>WPT.262</name>
      </trkpt>
      <trkpt lat="31.889147740" lon="-109.170457410">
        <ele>1500.600</ele>
        <time>2021-03-21T23:12:01Z</time>
        <name>WPT.263</name>
      </trkpt>
      <trkpt lat="31.889164410" lon="-109.170405580">
        <ele>1501.200</ele>
        <time>2021-03-21T23:12:06Z</time>
        <name>WPT.264</name>
      </trkpt>
      <trkpt lat="31.889203370" lon="-109.170375910">
        <ele>1502.600</ele>
        <time>2021-03-21T23:12:10Z</time>
        <name>WPT.265</name>
      </trkpt>
      <trkpt lat="31.889231510" lon="-109.170347590">
        <ele>1505.900</ele>
        <time>2021-03-21T23:12:14Z</time>
        <name>WPT.266</name>
      </trkpt>
      <trkpt lat="31.889256380" lon="-109.170312160">
        <ele>1506.000</ele>
        <time>2021-03-21T23:12:20Z</time>
        <name>WPT.267</name>
      </trkpt>
      <trkpt lat="31.889288140" lon="-109.170286740">
        <ele>1505.500</ele>
        <time>2021-03-21T23:12:26Z</time>
        <name>WPT.268</name>
      </trkpt>
      <trkpt lat="31.889296710" lon="-109.170238600">
        <ele>1505.100</ele>
        <time>2021-03-21T23:12:32Z</time>
        <name>WPT.269</name>
      </trkpt>
      <trkpt lat="31.889293630" lon="-109.170196040">
        <ele>1505.200</ele>
        <time>2021-03-21T23:12:36Z</time>
        <name>WPT.270</name>
      </trkpt>
      <trkpt lat="31.889321540" lon="-109.170162090">
        <ele>1504.500</ele>
        <time>2021-03-21T23:12:41Z</time>
        <name>WPT.271</name>
      </trkpt>
      <trkpt lat="31.889355160" lon="-109.170138530">
        <ele>1503.100</ele>
        <time>2021-03-21T23:12:46Z</time>
        <name>WPT.272</name>
      </trkpt>
      <trkpt lat="31.889387910" lon="-109.170109000">
        <ele>1503.600</ele>
        <time>2021-03-21T23:12:51Z</time>
        <name>WPT.273</name>
      </trkpt>
      <trkpt lat="31.889429830" lon="-109.170098020">
        <ele>1504.600</ele>
        <time>2021-03-21T23:12:56Z</time>
        <name>WPT.274</name>
      </trkpt>
      <trkpt lat="31.889446300" lon="-109.170049400">
        <ele>1501.500</ele>
        <time>2021-03-21T23:13:01Z</time>
        <name>WPT.275</name>
      </trkpt>
      <trkpt lat="31.889453010" lon="-109.170003660">
        <ele>1501.200</ele>
        <time>2021-03-21T23:13:06Z</time>
        <name>WPT.276</name>
      </trkpt>
      <trkpt lat="31.889465390" lon="-109.169955820">
        <ele>1502.800</ele>
        <time>2021-03-21T23:13:11Z</time>
        <name>WPT.277</name>
      </trkpt>
      <trkpt lat="31.889492130" lon="-109.169918680">
        <ele>1502.300</ele>
        <time>2021-03-21T23:13:16Z</time>
        <name>WPT.278</name>
      </trkpt>
      <trkpt lat="31.889525540" lon="-109.169899080">
        <ele>1500.500</ele>
        <time>2021-03-21T23:13:21Z</time>
        <name>WPT.279</name>
      </trkpt>
      <trkpt lat="31.889562530" lon="-109.169888990">
        <ele>1498.700</ele>
        <time>2021-03-21T23:13:26Z</time>
        <name>WPT.280</name>
      </trkpt>
      <trkpt lat="31.889601280" lon="-109.169871280">
        <ele>1498.100</ele>
        <time>2021-03-21T23:13:30Z</time>
        <name>WPT.281</name>
      </trkpt>
      <trkpt lat="31.889636810" lon="-109.169848490">
        <ele>1496.700</ele>
        <time>2021-03-21T23:13:34Z</time>
        <name>WPT.282</name>
      </trkpt>
      <trkpt lat="31.889665760" lon="-109.169810900">
        <ele>1496.900</ele>
        <time>2021-03-21T23:13:39Z</time>
        <name>WPT.283</name>
      </trkpt>
      <trkpt lat="31.889701610" lon="-109.169784910">
        <ele>1495.100</ele>
        <time>2021-03-21T23:13:44Z</time>
        <name>WPT.284</name>
      </trkpt>
      <trkpt lat="31.889698880" lon="-109.169737770">
        <ele>1493.600</ele>
        <time>2021-03-21T23:13:50Z</time>
        <name>WPT.285</name>
      </trkpt>
      <trkpt lat="31.889735140" lon="-109.169707570">
        <ele>1492.000</ele>
        <time>2021-03-21T23:13:55Z</time>
        <name>WPT.286</name>
      </trkpt>
      <trkpt lat="31.889773830" lon="-109.169685220">
        <ele>1492.800</ele>
        <time>2021-03-21T23:13:59Z</time>
        <name>WPT.287</name>
      </trkpt>
      <trkpt lat="31.889800960" lon="-109.169654800">
        <ele>1491.700</ele>
        <time>2021-03-21T23:14:05Z</time>
        <name>WPT.288</name>
      </trkpt>
      <trkpt lat="31.889836960" lon="-109.169633510">
        <ele>1494.200</ele>
        <time>2021-03-21T23:14:34Z</time>
        <name>WPT.289</name>
      </trkpt>
      <trkpt lat="31.889868070" lon="-109.169603250">
        <ele>1492.200</ele>
        <time>2021-03-21T23:14:40Z</time>
        <name>WPT.290</name>
      </trkpt>
      <trkpt lat="31.889904880" lon="-109.169585010">
        <ele>1490.900</ele>
        <time>2021-03-21T23:14:45Z</time>
        <name>WPT.291</name>
      </trkpt>
      <trkpt lat="31.889927790" lon="-109.169549370">
        <ele>1492.200</ele>
        <time>2021-03-21T23:15:32Z</time>
        <name>WPT.292</name>
      </trkpt>
      <trkpt lat="31.889955290" lon="-109.169513400">
        <ele>1493.300</ele>
        <time>2021-03-21T23:15:37Z</time>
        <name>WPT.293</name>
      </trkpt>
      <trkpt lat="31.889988560" lon="-109.169485010">
        <ele>1496.400</ele>
        <time>2021-03-21T23:15:42Z</time>
        <name>WPT.294</name>
      </trkpt>
      <trkpt lat="31.890023220" lon="-109.169464270">
        <ele>1497.000</ele>
        <time>2021-03-21T23:15:46Z</time>
        <name>WPT.295</name>
      </trkpt>
      <trkpt lat="31.890063330" lon="-109.169445790">
        <ele>1497.500</ele>
        <time>2021-03-21T23:15:51Z</time>
        <name>WPT.296</name>
      </trkpt>
      <trkpt lat="31.890102810" lon="-109.169435170">
        <ele>1498.800</ele>
        <time>2021-03-21T23:15:55Z</time>
        <name>WPT.297</name>
      </trkpt>
      <trkpt lat="31.890136060" lon="-109.169407380">
        <ele>1499.100</ele>
        <time>2021-03-21T23:16:00Z</time>
        <name>WPT.298</name>
      </trkpt>
      <trkpt lat="31.890175030" lon="-109.169384320">
        <ele>1496.000</ele>
        <time>2021-03-21T23:16:05Z</time>
        <name>WPT.299</name>
      </trkpt>
      <trkpt lat="31.890207190" lon="-109.169361520">
        <ele>1495.800</ele>
        <time>2021-03-21T23:16:09Z</time>
        <name>WPT.300</name>
      </trkpt>
      <trkpt lat="31.890242700" lon="-109.169337350">
        <ele>1496.100</ele>
        <time>2021-03-21T23:16:13Z</time>
        <name>WPT.301</name>
      </trkpt>
      <trkpt lat="31.890277460" lon="-109.169318190">
        <ele>1497.000</ele>
        <time>2021-03-21T23:16:18Z</time>
        <name>WPT.302</name>
      </trkpt>
      <trkpt lat="31.890317100" lon="-109.169294960">
        <ele>1497.100</ele>
        <time>2021-03-21T23:16:23Z</time>
        <name>WPT.303</name>
      </trkpt>
      <trkpt lat="31.890344420" lon="-109.169266090">
        <ele>1498.200</ele>
        <time>2021-03-21T23:16:27Z</time>
        <name>WPT.304</name>
      </trkpt>
      <trkpt lat="31.890388870" lon="-109.169258040">
        <ele>1499.000</ele>
        <time>2021-03-21T23:16:31Z</time>
        <name>WPT.305</name>
      </trkpt>
      <trkpt lat="31.890429930" lon="-109.169245220">
        <ele>1496.200</ele>
        <time>2021-03-21T23:16:38Z</time>
        <name>WPT.306</name>
      </trkpt>
      <trkpt lat="31.890472340" lon="-109.169246490">
        <ele>1496.100</ele>
        <time>2021-03-21T23:16:45Z</time>
        <name>WPT.307</name>
      </trkpt>
      <trkpt lat="31.890509660" lon="-109.169226990">
        <ele>1494.400</ele>
        <time>2021-03-21T23:16:49Z</time>
        <name>WPT.308</name>
      </trkpt>
      <trkpt lat="31.890545940" lon="-109.169204840">
        <ele>1490.800</ele>
        <time>2021-03-21T23:16:53Z</time>
        <name>WPT.309</name>
      </trkpt>
      <trkpt lat="31.890583330" lon="-109.169190690">
        <ele>1493.300</ele>
        <time>2021-03-21T23:17:04Z</time>
        <name>WPT.310</name>
      </trkpt>
      <trkpt lat="31.890615790" lon="-109.169163250">
        <ele>1492.400</ele>
        <time>2021-03-21T23:17:09Z</time>
        <name>WPT.311</name>
      </trkpt>
      <trkpt lat="31.890652060" lon="-109.169131660">
        <ele>1494.800</ele>
        <time>2021-03-21T23:17:13Z</time>
        <name>WPT.312</name>
      </trkpt>
      <trkpt lat="31.890681060" lon="-109.169092900">
        <ele>1495.100</ele>
        <time>2021-03-21T23:17:21Z</time>
        <name>WPT.313</name>
      </trkpt>
      <trkpt lat="31.890699690" lon="-109.169040530">
        <ele>1497.800</ele>
        <time>2021-03-21T23:17:29Z</time>
        <name>WPT.314</name>
      </trkpt>
      <trkpt lat="31.890711410" lon="-109.168997270">
        <ele>1500.200</ele>
        <time>2021-03-21T23:17:32Z</time>
        <name>WPT.315</name>
      </trkpt>
      <trkpt lat="31.890735840" lon="-109.168955990">
        <ele>1502.000</ele>
        <time>2021-03-21T23:17:36Z</time>
        <name>WPT.316</name>
      </trkpt>
      <trkpt lat="31.890764830" lon="-109.168929560">
        <ele>1501.900</ele>
        <time>2021-03-21T23:17:40Z</time>
        <name>WPT.317</name>
      </trkpt>
      <trkpt lat="31.890795830" lon="-109.168892830">
        <ele>1505.500</ele>
        <time>2021-03-21T23:17:44Z</time>
        <name>WPT.318</name>
      </trkpt>
      <trkpt lat="31.890837600" lon="-109.168881400">
        <ele>1502.300</ele>
        <time>2021-03-21T23:17:49Z</time>
        <name>WPT.319</name>
      </trkpt>
      <trkpt lat="31.890875200" lon="-109.168880900">
        <ele>1502.400</ele>
        <time>2021-03-21T23:17:54Z</time>
        <name>WPT.320</name>
      </trkpt>
      <trkpt lat="31.890912610" lon="-109.168879670">
        <ele>1495.900</ele>
        <time>2021-03-21T23:18:12Z</time>
        <name>WPT.321</name>
      </trkpt>
      <trkpt lat="31.890959820" lon="-109.168860160">
        <ele>1495.700</ele>
        <time>2021-03-21T23:18:15Z</time>
        <name>WPT.322</name>
      </trkpt>
      <trkpt lat="31.890992770" lon="-109.168827210">
        <ele>1498.000</ele>
        <time>2021-03-21T23:18:18Z</time>
        <name>WPT.323</name>
      </trkpt>
      <trkpt lat="31.891036860" lon="-109.168808990">
        <ele>1496.400</ele>
        <time>2021-03-21T23:18:21Z</time>
        <name>WPT.324</name>
      </trkpt>
      <trkpt lat="31.891073680" lon="-109.168810730">
        <ele>1500.100</ele>
        <time>2021-03-21T23:18:30Z</time>
        <name>WPT.325</name>
      </trkpt>
      <trkpt lat="31.891115420" lon="-109.168796270">
        <ele>1499.900</ele>
        <time>2021-03-21T23:18:37Z</time>
        <name>WPT.326</name>
      </trkpt>
      <trkpt lat="31.891154130" lon="-109.168777920">
        <ele>1500.800</ele>
        <time>2021-03-21T23:18:42Z</time>
        <name>WPT.327</name>
      </trkpt>
      <trkpt lat="31.891176150" lon="-109.168741400">
        <ele>1500.400</ele>
        <time>2021-03-21T23:18:50Z</time>
        <name>WPT.328</name>
      </trkpt>
      <trkpt lat="31.891214480" lon="-109.168720620">
        <ele>1500.000</ele>
        <time>2021-03-21T23:18:53Z</time>
        <name>WPT.329</name>
      </trkpt>
      <trkpt lat="31.891261520" lon="-109.168720260">
        <ele>1497.200</ele>
        <time>2021-03-21T23:18:57Z</time>
        <name>WPT.330</name>
      </trkpt>
      <trkpt lat="31.891302530" lon="-109.168694750">
        <ele>1494.800</ele>
        <time>2021-03-21T23:19:01Z</time>
        <name>WPT.331</name>
      </trkpt>
      <trkpt lat="31.891329910" lon="-109.168666920">
        <ele>1494.900</ele>
        <time>2021-03-21T23:19:04Z</time>
        <name>WPT.332</name>
      </trkpt>
      <trkpt lat="31.891365580" lon="-109.168651500">
        <ele>1495.200</ele>
        <time>2021-03-21T23:19:08Z</time>
        <name>WPT.333</name>
      </trkpt>
      <trkpt lat="31.891398120" lon="-109.168617780">
        <ele>1496.200</ele>
        <time>2021-03-21T23:19:12Z</time>
        <name>WPT.334</name>
      </trkpt>
      <trkpt lat="31.891429630" lon="-109.168593330">
        <ele>1496.500</ele>
        <time>2021-03-21T23:19:16Z</time>
        <name>WPT.335</name>
      </trkpt>
      <trkpt lat="31.891466230" lon="-109.168561960">
        <ele>1498.200</ele>
        <time>2021-03-21T23:19:21Z</time>
        <name>WPT.336</name>
      </trkpt>
      <trkpt lat="31.891500420" lon="-109.168528420">
        <ele>1496.700</ele>
        <time>2021-03-21T23:19:26Z</time>
        <name>WPT.337</name>
      </trkpt>
      <trkpt lat="31.891525900" lon="-109.168489980">
        <ele>1496.700</ele>
        <time>2021-03-21T23:19:39Z</time>
        <name>WPT.338</name>
      </trkpt>
      <trkpt lat="31.891495050" lon="-109.168462650">
        <ele>1490.400</ele>
        <time>2021-03-21T23:19:49Z</time>
        <name>WPT.339</name>
      </trkpt>
      <trkpt lat="31.891456980" lon="-109.168433000">
        <ele>1486.800</ele>
        <time>2021-03-21T23:19:53Z</time>
        <name>WPT.340</name>
      </trkpt>
      <trkpt lat="31.891416070" lon="-109.168415590">
        <ele>1484.300</ele>
        <time>2021-03-21T23:19:56Z</time>
        <name>WPT.341</name>
      </trkpt>
      <trkpt lat="31.891380210" lon="-109.168384370">
        <ele>1484.100</ele>
        <time>2021-03-21T23:20:00Z</time>
        <name>WPT.342</name>
      </trkpt>
      <trkpt lat="31.891348070" lon="-109.168359720">
        <ele>1483.700</ele>
        <time>2021-03-21T23:20:04Z</time>
        <name>WPT.343</name>
      </trkpt>
      <trkpt lat="31.891366660" lon="-109.168321620">
        <ele>1483.800</ele>
        <time>2021-03-21T23:20:09Z</time>
        <name>WPT.344</name>
      </trkpt>
      <trkpt lat="31.891390600" lon="-109.168289280">
        <ele>1484.400</ele>
        <time>2021-03-21T23:20:13Z</time>
        <name>WPT.345</name>
      </trkpt>
      <trkpt lat="31.891413080" lon="-109.168249910">
        <ele>1486.100</ele>
        <time>2021-03-21T23:20:16Z</time>
        <name>WPT.346</name>
      </trkpt>
      <trkpt lat="31.891452630" lon="-109.168217830">
        <ele>1485.700</ele>
        <time>2021-03-21T23:20:20Z</time>
        <name>WPT.347</name>
      </trkpt>
      <trkpt lat="31.891484230" lon="-109.168194450">
        <ele>1486.200</ele>
        <time>2021-03-21T23:20:23Z</time>
        <name>WPT.348</name>
      </trkpt>
      <trkpt lat="31.891491420" lon="-109.168148400">
        <ele>1488.100</ele>
        <time>2021-03-21T23:20:30Z</time>
        <name>WPT.349</name>
      </trkpt>
      <trkpt lat="31.891456900" lon="-109.168119910">
        <ele>1484.300</ele>
        <time>2021-03-21T23:20:37Z</time>
        <name>WPT.350</name>
      </trkpt>
      <trkpt lat="31.891424240" lon="-109.168087520">
        <ele>1481.800</ele>
        <time>2021-03-21T23:20:44Z</time>
        <name>WPT.351</name>
      </trkpt>
      <trkpt lat="31.891449910" lon="-109.168050550">
        <ele>1475.900</ele>
        <time>2021-03-21T23:21:19Z</time>
        <name>WPT.352</name>
      </trkpt>
      <trkpt lat="31.891499160" lon="-109.168058900">
        <ele>1477.400</ele>
        <time>2021-03-21T23:21:21Z</time>
        <name>WPT.353</name>
      </trkpt>
      <trkpt lat="31.891512120" lon="-109.168012810">
        <ele>1477.200</ele>
        <time>2021-03-21T23:21:30Z</time>
        <name>WPT.354</name>
      </trkpt>
      <trkpt lat="31.891551370" lon="-109.168002190">
        <ele>1475.500</ele>
        <time>2021-03-21T23:21:37Z</time>
        <name>WPT.355</name>
      </trkpt>
      <trkpt lat="31.891579590" lon="-109.167970130">
        <ele>1480.500</ele>
        <time>2021-03-21T23:21:44Z</time>
        <name>WPT.356</name>
      </trkpt>
      <trkpt lat="31.891578830" lon="-109.167922820">
        <ele>1480.600</ele>
        <time>2021-03-21T23:21:49Z</time>
        <name>WPT.357</name>
      </trkpt>
      <trkpt lat="31.891550760" lon="-109.167890550">
        <ele>1480.700</ele>
        <time>2021-03-21T23:21:55Z</time>
        <name>WPT.358</name>
      </trkpt>
      <trkpt lat="31.891535310" lon="-109.167852290">
        <ele>1482.300</ele>
        <time>2021-03-21T23:22:13Z</time>
        <name>WPT.359</name>
      </trkpt>
      <trkpt lat="31.891524670" lon="-109.167811580">
        <ele>1484.000</ele>
        <time>2021-03-21T23:22:22Z</time>
        <name>WPT.360</name>
      </trkpt>
      <trkpt lat="31.891507420" lon="-109.167772780">
        <ele>1482.600</ele>
        <time>2021-03-21T23:22:35Z</time>
        <name>WPT.361</name>
      </trkpt>
      <trkpt lat="31.891480990" lon="-109.167804810">
        <ele>1483.900</ele>
        <time>2021-03-21T23:23:01Z</time>
        <name>WPT.362</name>
      </trkpt>
      <trkpt lat="31.891443840" lon="-109.167811380">
        <ele>1486.300</ele>
        <time>2021-03-21T23:23:10Z</time>
        <name>WPT.363</name>
      </trkpt>
      <trkpt lat="31.891417150" lon="-109.167841350">
        <ele>1485.100</ele>
        <time>2021-03-21T23:23:24Z</time>
        <name>WPT.364</name>
      </trkpt>
      <trkpt lat="31.891380160" lon="-109.167854050">
        <ele>1488.200</ele>
        <time>2021-03-21T23:23:37Z</time>
        <name>WPT.365</name>
      </trkpt>
      <trkpt lat="31.891338330" lon="-109.167851990">
        <ele>1489.000</ele>
        <time>2021-03-21T23:23:43Z</time>
        <name>WPT.366</name>
      </trkpt>
      <trkpt lat="31.891303510" lon="-109.167867500">
        <ele>1487.600</ele>
        <time>2021-03-21T23:23:48Z</time>
        <name>WPT.367</name>
      </trkpt>
      <trkpt lat="31.891265220" lon="-109.167857310">
        <ele>1487.600</ele>
        <time>2021-03-21T23:23:57Z</time>
        <name>WPT.368</name>
      </trkpt>
      <trkpt lat="31.891228260" lon="-109.167856040">
        <ele>1489.700</ele>
        <time>2021-03-21T23:24:02Z</time>
        <name>WPT.369</name>
      </trkpt>
      <trkpt lat="31.891206380" lon="-109.167890940">
        <ele>1489.000</ele>
        <time>2021-03-21T23:24:06Z</time>
        <name>WPT.370</name>
      </trkpt>
      <trkpt lat="31.891170340" lon="-109.167894580">
        <ele>1490.600</ele>
        <time>2021-03-21T23:24:22Z</time>
        <name>WPT.371</name>
      </trkpt>
      <trkpt lat="31.891165460" lon="-109.167849570">
        <ele>1493.000</ele>
        <time>2021-03-21T23:24:27Z</time>
        <name>WPT.372</name>
      </trkpt>
      <trkpt lat="31.891157970" lon="-109.167841090">
        <ele>1496.200</ele>
        <time>2021-03-21T23:25:08Z</time>
        <name>WPT.373</name>
      </trkpt>
    </trkseg>
  </trk>
</gpx>
